createdAt,value
2022-10-04T00:02:29.667Z,12.89
2022-10-04T00:05:01.099Z,12.69
2022-10-04T00:07:30.227Z,12.68
2022-10-04T00:09:58.237Z,12.55
2022-10-04T00:12:26.418Z,12.62
2022-10-04T00:14:55.196Z,12.63
2022-10-04T00:17:27.185Z,12.65
2022-10-04T00:19:54.493Z,12.59
2022-10-04T00:22:25.262Z,12.63
2022-10-04T00:25:06.960Z,12.54
2022-10-04T00:27:34.146Z,12.50
2022-10-04T00:30:03.210Z,12.44
2022-10-04T00:32:39.320Z,12.35
2022-10-04T00:35:24.105Z,12.46
2022-10-04T00:37:58.040Z,12.36
2022-10-04T00:40:28.219Z,12.38
2022-10-04T00:42:58.791Z,12.37
2022-10-04T00:45:30.923Z,12.38
2022-10-04T00:47:59.990Z,12.30
2022-10-04T00:50:47.200Z,12.33
2022-10-04T00:53:18.583Z,12.27
2022-10-04T00:55:49.022Z,12.36
2022-10-04T00:58:25.406Z,12.37
2022-10-04T01:00:53.641Z,12.44
2022-10-04T01:03:39.987Z,12.49
2022-10-04T01:06:10.186Z,12.71
2022-10-04T01:08:47.965Z,12.63
2022-10-04T01:11:20.230Z,12.76
2022-10-04T01:14:21.897Z,12.75
2022-10-04T01:16:48.340Z,12.79
2022-10-04T01:19:26.563Z,12.79
2022-10-04T01:22:01.872Z,12.91
2022-10-04T01:24:33.822Z,12.83
2022-10-04T01:27:00.737Z,12.90
2022-10-04T01:29:28.501Z,13.00
2022-10-04T01:31:56.088Z,13.00
2022-10-04T01:34:27.516Z,12.93
2022-10-04T01:36:59.099Z,12.95
2022-10-04T01:39:26.437Z,12.78
2022-10-04T01:42:05.219Z,12.79
2022-10-04T01:44:31.506Z,12.72
2022-10-04T01:46:59.733Z,12.60
2022-10-04T01:49:28.409Z,12.68
2022-10-04T01:52:02.416Z,12.60
2022-10-04T01:54:33.913Z,12.59
2022-10-04T01:57:04.932Z,12.55
2022-10-04T01:59:34.887Z,12.55
2022-10-04T02:02:04.317Z,12.40
2022-10-04T02:04:32.586Z,12.39
2022-10-04T02:07:00.284Z,12.30
2022-10-04T02:09:29.437Z,12.35
2022-10-04T02:11:58.175Z,12.39
2022-10-04T02:14:29.883Z,12.24
2022-10-04T02:16:56.399Z,12.27
2022-10-04T02:19:25.014Z,12.25
2022-10-04T02:21:52.232Z,12.22
2022-10-04T02:24:19.007Z,12.13
2022-10-04T02:26:52.282Z,12.13
2022-10-04T02:29:19.720Z,12.16
2022-10-04T02:32:06.414Z,12.06
2022-10-04T02:34:33.004Z,12.18
2022-10-04T02:37:01.749Z,12.10
2022-10-04T02:39:30.195Z,12.24
2022-10-04T02:42:02.566Z,11.99
2022-10-04T02:44:42.107Z,12.05
2022-10-04T02:47:12.818Z,11.93
2022-10-04T02:49:58.116Z,11.91
2022-10-04T02:52:31.516Z,12.00
2022-10-04T02:55:02.708Z,11.94
2022-10-04T02:57:30.822Z,12.10
2022-10-04T03:00:09.291Z,12.09
2022-10-04T03:02:35.616Z,12.27
2022-10-04T03:05:06.954Z,12.20
2022-10-04T03:07:35.075Z,12.25
2022-10-04T03:10:02.116Z,12.38
2022-10-04T03:12:28.461Z,12.36
2022-10-04T03:14:55.194Z,12.38
2022-10-04T03:17:21.985Z,12.37
2022-10-04T03:19:48.852Z,12.50
2022-10-04T03:22:15.741Z,12.35
2022-10-04T03:24:50.094Z,12.47
2022-10-04T03:27:24.880Z,12.49
2022-10-04T03:29:53.582Z,12.51
2022-10-04T03:32:23.353Z,12.33
2022-10-04T03:34:55.439Z,12.23
2022-10-04T03:37:22.003Z,12.21
2022-10-04T03:39:52.673Z,12.33
2022-10-04T03:42:24.297Z,12.35
2022-10-04T03:44:52.062Z,12.12
2022-10-04T03:47:27.230Z,12.14
2022-10-04T03:49:55.401Z,12.03
2022-10-04T03:52:25.497Z,12.10
2022-10-04T03:54:53.280Z,12.12
2022-10-04T03:57:19.565Z,12.05
2022-10-04T03:59:45.943Z,12.06
2022-10-04T04:02:12.214Z,12.06
2022-10-04T04:04:44.638Z,12.02
2022-10-04T04:07:20.984Z,11.90
2022-10-04T04:09:50.969Z,11.86
2022-10-04T04:12:20.403Z,11.89
2022-10-04T04:14:49.608Z,11.85
2022-10-04T04:17:35.791Z,11.99
2022-10-04T04:20:07.400Z,11.97
2022-10-04T04:22:34.916Z,11.77
2022-10-04T04:25:02.598Z,11.64
2022-10-04T04:27:29.836Z,11.81
2022-10-04T04:29:59.179Z,11.77
2022-10-04T04:32:31.075Z,11.73
2022-10-04T04:34:58.501Z,11.68
2022-10-04T04:37:24.754Z,11.55
2022-10-04T04:39:54.812Z,11.61
2022-10-04T04:42:31.692Z,11.46
2022-10-04T04:45:00.794Z,11.57
2022-10-04T04:47:28.850Z,11.57
2022-10-04T04:49:57.072Z,11.46
2022-10-04T04:52:26.000Z,11.55
2022-10-04T04:54:53.065Z,11.60
2022-10-04T04:57:19.637Z,11.54
2022-10-04T04:59:47.251Z,11.55
2022-10-04T05:02:27.808Z,11.63
2022-10-04T05:05:12.776Z,11.63
2022-10-04T05:07:39.053Z,11.74
2022-10-04T05:10:19.889Z,11.89
2022-10-04T05:12:47.175Z,12.02
2022-10-04T05:15:15.296Z,12.13
2022-10-04T05:17:41.799Z,12.00
2022-10-04T05:20:08.181Z,12.02
2022-10-04T05:22:34.991Z,12.18
2022-10-04T05:25:03.139Z,12.23
2022-10-04T05:27:34.345Z,12.31
2022-10-04T05:30:00.547Z,12.25
2022-10-04T05:32:33.064Z,12.24
2022-10-04T05:35:00.217Z,12.13
2022-10-04T05:37:49.738Z,12.16
2022-10-04T05:40:24.016Z,12.22
2022-10-04T05:42:52.014Z,12.03
2022-10-04T05:45:25.945Z,11.99
2022-10-04T05:47:53.706Z,12.04
2022-10-04T05:50:30.079Z,12.09
2022-10-04T05:53:08.949Z,12.03
2022-10-04T05:55:43.910Z,12.05
2022-10-04T05:58:19.769Z,11.97
2022-10-04T06:01:04.630Z,11.92
2022-10-04T06:03:43.222Z,11.96
2022-10-04T06:06:19.640Z,11.87
2022-10-04T06:09:18.428Z,11.89
2022-10-04T06:12:08.123Z,11.94
2022-10-04T06:14:34.406Z,11.77
2022-10-04T06:17:09.478Z,11.71
2022-10-04T06:19:38.725Z,11.82
2022-10-04T06:22:18.315Z,11.73
2022-10-04T06:24:50.966Z,11.85
2022-10-04T06:27:23.594Z,11.82
2022-10-04T06:29:54.148Z,11.85
2022-10-04T06:32:38.480Z,11.77
2022-10-04T06:35:11.023Z,11.77
2022-10-04T06:37:53.401Z,11.69
2022-10-04T06:40:28.797Z,11.74
2022-10-04T06:43:13.967Z,11.76
2022-10-04T06:45:43.239Z,11.63
2022-10-04T06:48:21.733Z,11.72
2022-10-04T06:50:58.921Z,11.73
2022-10-04T06:54:03.825Z,11.76
2022-10-04T06:56:59.382Z,11.84
2022-10-04T06:59:34.099Z,11.73
2022-10-04T07:02:03.881Z,11.92
2022-10-04T07:05:03.197Z,12.00
2022-10-04T07:07:35.587Z,11.97
2022-10-04T07:10:08.093Z,12.12
2022-10-04T07:12:38.596Z,12.25
2022-10-04T07:15:13.540Z,12.24
2022-10-04T07:17:42.449Z,12.48
2022-10-04T07:20:21.138Z,12.53
2022-10-04T07:22:51.476Z,12.45
2022-10-04T07:25:23.914Z,12.71
2022-10-04T07:28:21.209Z,12.52
2022-10-04T07:31:06.258Z,12.68
2022-10-04T07:33:35.672Z,12.69
2022-10-04T07:36:13.000Z,12.75
2022-10-04T07:38:46.217Z,12.73
2022-10-04T07:41:16.995Z,10.23
2022-10-04T07:43:49.999Z,11.69
2022-10-04T07:46:19.129Z,11.95
2022-10-04T07:48:49.014Z,12.16
2022-10-04T07:51:30.245Z,12.19
2022-10-04T07:54:10.250Z,12.47
2022-10-04T07:56:41.016Z,12.62
2022-10-04T07:59:20.799Z,12.54
2022-10-04T08:02:01.235Z,12.59
2022-10-04T08:04:29.508Z,12.51
2022-10-04T08:07:00.158Z,12.54
2022-10-04T08:09:26.458Z,12.55
2022-10-04T08:11:58.897Z,12.58
2022-10-04T08:14:31.248Z,12.61
2022-10-04T08:17:17.757Z,12.65
2022-10-04T08:19:56.354Z,12.59
2022-10-04T08:22:33.922Z,12.70
2022-10-04T08:25:26.740Z,12.64
2022-10-04T08:28:11.501Z,12.63
2022-10-04T08:30:48.086Z,12.72
2022-10-04T08:33:22.837Z,12.72
2022-10-04T08:36:09.382Z,12.68
2022-10-04T08:38:42.308Z,13.01
2022-10-04T08:41:38.125Z,12.93
2022-10-04T08:44:16.662Z,13.00
2022-10-04T08:46:59.102Z,12.97
2022-10-04T08:49:35.483Z,13.07
2022-10-04T08:52:04.484Z,13.25
2022-10-04T08:54:35.467Z,13.28
2022-10-04T08:57:15.623Z,13.30
2022-10-04T08:59:58.664Z,13.42
2022-10-04T09:02:44.766Z,13.47
2022-10-04T09:05:29.533Z,13.41
2022-10-04T09:08:17.132Z,13.50
2022-10-04T09:11:02.147Z,13.39
2022-10-04T09:13:30.369Z,13.47
2022-10-04T09:16:03.715Z,13.44
2022-10-04T09:18:45.427Z,13.46
2022-10-04T09:21:17.074Z,13.52
2022-10-04T09:23:57.802Z,13.43
2022-10-04T09:26:32.325Z,13.39
2022-10-04T09:29:13.038Z,13.34
2022-10-04T09:31:54.503Z,13.40
2022-10-04T09:34:50.208Z,13.50
2022-10-04T09:37:34.135Z,13.33
2022-10-04T09:40:20.118Z,13.40
2022-10-04T09:43:00.751Z,13.49
2022-10-04T09:45:45.595Z,13.38
2022-10-04T09:48:11.801Z,13.44
2022-10-04T09:50:52.640Z,13.43
2022-10-04T09:53:46.185Z,13.45
2022-10-04T09:56:12.418Z,13.42
2022-10-04T09:58:53.766Z,13.51
2022-10-04T10:01:38.914Z,13.53
2022-10-04T10:04:20.462Z,13.56
2022-10-04T10:07:14.420Z,13.52
2022-10-04T10:10:18.226Z,13.54
2022-10-04T10:13:06.040Z,13.54
2022-10-04T10:15:59.376Z,13.50
2022-10-04T10:18:34.091Z,13.60
2022-10-04T10:21:00.578Z,13.65
2022-10-04T10:23:37.210Z,13.57
2022-10-04T10:26:22.855Z,13.59
2022-10-04T10:29:02.529Z,13.77
2022-10-04T10:31:50.854Z,13.71
2022-10-04T10:34:35.624Z,13.72
2022-10-04T10:37:22.844Z,13.80
2022-10-04T10:40:06.835Z,13.94
2022-10-04T10:42:43.192Z,14.02
2022-10-04T10:45:35.642Z,14.00
2022-10-04T10:48:09.197Z,14.08
2022-10-04T10:51:00.215Z,14.18
2022-10-04T10:53:48.050Z,14.21
2022-10-04T10:56:33.077Z,14.30
2022-10-04T10:59:18.384Z,14.31
2022-10-04T11:02:05.650Z,14.32
2022-10-04T11:04:54.600Z,14.36
2022-10-04T11:07:22.836Z,14.37
2022-10-04T11:10:23.194Z,14.28
2022-10-04T11:13:02.258Z,14.39
2022-10-04T11:15:31.603Z,14.36
2022-10-04T11:18:13.101Z,14.34
2022-10-04T11:20:48.863Z,14.38
2022-10-04T11:23:15.177Z,14.33
2022-10-04T11:25:44.237Z,14.37
2022-10-04T11:28:46.721Z,14.38
2022-10-04T11:31:38.000Z,14.36
2022-10-04T11:34:19.446Z,14.39
2022-10-04T11:37:07.032Z,14.36
2022-10-04T11:39:44.665Z,14.36
2022-10-04T11:42:28.698Z,14.33
2022-10-04T11:45:21.038Z,14.32
2022-10-04T11:48:00.147Z,14.30
2022-10-04T11:50:41.513Z,14.38
2022-10-04T11:53:07.985Z,14.40
2022-10-04T11:55:54.445Z,14.40
2022-10-04T11:58:32.918Z,14.40
2022-10-04T12:01:08.059Z,14.30
2022-10-04T12:03:35.749Z,14.37
2022-10-04T12:06:22.240Z,14.30
2022-10-04T12:09:04.731Z,14.43
2022-10-04T12:11:54.088Z,14.39
2022-10-04T12:14:42.511Z,14.44
2022-10-04T12:17:28.809Z,14.49
2022-10-04T12:20:11.913Z,14.49
2022-10-04T12:22:45.457Z,14.47
2022-10-04T12:25:30.540Z,14.53
2022-10-04T12:28:11.225Z,14.55
2022-10-04T12:30:55.025Z,14.57
2022-10-04T12:33:25.609Z,14.62
2022-10-04T12:35:57.202Z,14.53
2022-10-04T12:38:35.540Z,14.65
2022-10-04T12:41:24.489Z,14.83
2022-10-04T12:44:07.869Z,14.85
2022-10-04T12:46:54.671Z,14.84
2022-10-04T12:49:41.182Z,14.83
2022-10-04T12:52:10.441Z,14.87
2022-10-04T12:54:44.397Z,14.85
2022-10-04T12:57:10.681Z,14.92
2022-10-04T12:59:55.594Z,14.94
2022-10-04T13:02:31.745Z,15.01
2022-10-04T13:04:58.043Z,14.97
2022-10-04T13:07:36.697Z,14.94
2022-10-04T13:10:24.142Z,14.86
2022-10-04T13:13:11.029Z,14.90
2022-10-04T13:19:07.202Z,14.91
2022-10-04T13:21:38.615Z,14.83
2022-10-04T13:24:04.957Z,14.86
2022-10-04T13:26:52.970Z,14.86
2022-10-04T13:29:25.241Z,14.73
2022-10-04T13:31:57.422Z,14.74
2022-10-04T13:34:42.296Z,14.75
2022-10-04T13:37:24.321Z,14.76
2022-10-04T13:39:50.544Z,14.69
2022-10-04T13:42:35.095Z,14.71
2022-10-04T13:45:04.461Z,14.67
2022-10-04T13:47:34.233Z,14.70
2022-10-04T13:50:09.842Z,14.60
2022-10-04T13:52:54.862Z,14.60
2022-10-04T13:56:04.624Z,14.61
2022-10-04T13:58:42.942Z,14.64
2022-10-04T14:01:21.188Z,14.57
2022-10-04T14:04:06.441Z,14.67
2022-10-04T14:06:41.953Z,14.56
2022-10-04T14:09:24.610Z,14.44
2022-10-04T14:12:01.830Z,14.54
2022-10-04T14:14:48.957Z,14.47
2022-10-04T14:17:24.765Z,14.54
2022-10-04T14:20:09.742Z,14.33
2022-10-04T14:22:50.345Z,14.26
2022-10-04T14:25:35.674Z,14.26
2022-10-04T14:28:05.045Z,14.36
2022-10-04T14:30:43.502Z,14.33
2022-10-04T14:33:19.708Z,14.39
2022-10-04T14:36:04.572Z,14.41
2022-10-04T14:38:47.391Z,14.52
2022-10-04T14:41:25.755Z,14.50
2022-10-04T14:43:52.018Z,14.57
2022-10-04T14:46:37.636Z,14.51
2022-10-04T14:49:18.579Z,14.60
2022-10-04T14:52:08.350Z,14.63
2022-10-04T14:54:34.996Z,14.75
2022-10-04T14:57:05.277Z,14.70
2022-10-04T14:59:58.993Z,14.71
2022-10-04T15:02:31.877Z,14.63
2022-10-04T15:05:17.165Z,14.56
2022-10-04T15:07:54.521Z,14.52
2022-10-04T15:10:27.753Z,14.46
2022-10-04T15:13:12.682Z,14.40
2022-10-04T15:16:02.826Z,14.35
2022-10-04T15:18:38.566Z,14.28
2022-10-04T15:21:12.263Z,14.10
2022-10-04T15:23:47.765Z,14.28
2022-10-04T15:26:19.805Z,14.19
2022-10-04T15:28:49.112Z,14.14
2022-10-04T15:31:21.599Z,14.03
2022-10-04T15:34:06.756Z,14.06
2022-10-04T15:36:37.228Z,14.02
2022-10-04T15:39:08.608Z,13.90
2022-10-04T15:41:34.840Z,13.77
2022-10-04T15:44:15.036Z,13.65
2022-10-04T15:46:47.713Z,13.70
2022-10-04T15:49:20.642Z,13.88
2022-10-04T16:40:07.660Z,12.67
2022-10-04T16:42:52.909Z,13.09
2022-10-04T16:45:32.882Z,13.27
2022-10-04T16:48:14.992Z,13.37
2022-10-04T16:51:19.245Z,13.43
2022-10-04T16:54:07.394Z,13.46
2022-10-04T16:57:03.559Z,13.50
2022-10-04T16:59:39.032Z,13.44
2022-10-04T17:02:17.205Z,13.44
2022-10-04T17:05:02.694Z,13.38
2022-10-04T17:07:52.867Z,13.37
2022-10-04T17:10:38.240Z,13.35
2022-10-04T17:13:38.456Z,13.29
2022-10-04T17:16:20.305Z,13.21
2022-10-04T17:19:12.842Z,13.19
2022-10-04T17:21:48.895Z,13.12
2022-10-04T17:24:37.526Z,13.06
2022-10-04T17:27:27.321Z,12.88
2022-10-04T17:30:05.254Z,12.85
2022-10-04T17:33:00.969Z,12.81
2022-10-04T17:35:54.689Z,12.75
2022-10-04T17:38:29.420Z,12.52
2022-10-04T17:41:08.053Z,12.51
2022-10-04T17:44:03.155Z,12.52
2022-10-04T17:46:50.416Z,11.79
2022-10-04T17:49:56.617Z,11.97
2022-10-04T17:52:53.105Z,12.02
2022-10-04T17:55:28.768Z,12.07
2022-10-04T17:58:14.033Z,12.04
2022-10-04T18:00:52.684Z,11.98
2022-10-04T18:03:39.886Z,11.90
2022-10-04T18:06:16.446Z,11.72
2022-10-04T18:09:14.243Z,11.68
2022-10-04T18:11:49.951Z,11.57
2022-10-04T18:14:50.821Z,11.55
2022-10-04T18:17:31.035Z,11.57
2022-10-04T18:20:27.270Z,11.42
2022-10-04T18:23:17.219Z,11.55
2022-10-04T18:25:44.042Z,11.41
2022-10-04T18:28:10.387Z,11.40
2022-10-04T18:30:46.023Z,11.32
2022-10-04T18:33:16.876Z,11.22
2022-10-04T18:36:15.708Z,11.14
2022-10-04T18:39:00.601Z,11.21
2022-10-04T18:41:47.453Z,11.10
2022-10-04T18:44:16.849Z,11.38
2022-10-04T18:46:47.985Z,11.46
2022-10-04T18:49:25.383Z,11.57
2022-10-04T18:52:07.239Z,11.58
2022-10-04T18:54:45.505Z,11.70
2022-10-04T18:57:27.140Z,11.65
2022-10-04T19:00:30.755Z,11.60
2022-10-04T19:02:57.191Z,11.64
2022-10-04T19:05:51.443Z,11.61
2022-10-04T19:08:39.728Z,11.64
2022-10-04T19:11:35.038Z,11.63
2022-10-04T19:14:22.282Z,11.62
2022-10-04T19:17:27.246Z,11.63
2022-10-04T19:19:53.579Z,11.61
2022-10-04T19:22:47.372Z,11.60
2022-10-04T19:25:33.493Z,11.55
2022-10-04T19:28:06.779Z,11.57
2022-10-04T19:31:00.685Z,11.59
2022-10-04T19:33:58.452Z,11.46
2022-10-04T19:36:31.329Z,11.30
2022-10-04T19:39:17.081Z,11.19
2022-10-04T19:42:02.864Z,11.07
2022-10-04T19:44:38.654Z,11.02
2022-10-04T19:47:40.368Z,10.93
2022-10-04T19:50:17.687Z,10.83
2022-10-04T19:52:59.544Z,10.70
2022-10-04T19:55:46.105Z,10.67
2022-10-04T19:58:26.547Z,10.59
2022-10-04T20:00:53.189Z,10.54
2022-10-04T20:03:19.723Z,10.36
2022-10-04T20:05:48.717Z,10.42
2022-10-04T20:08:36.423Z,10.43
2022-10-04T20:11:23.457Z,10.43
2022-10-04T20:14:07.075Z,10.31
2022-10-04T20:16:49.472Z,10.32
2022-10-04T20:19:26.814Z,10.33
2022-10-04T20:21:54.381Z,10.32
2022-10-04T20:24:35.714Z,10.28
2022-10-04T20:27:09.162Z,10.33
2022-10-04T20:29:45.938Z,10.30
2022-10-04T20:32:33.121Z,10.29
2022-10-04T20:35:01.399Z,10.35
2022-10-04T20:38:07.629Z,10.27
2022-10-04T20:40:45.528Z,10.22
2022-10-04T20:43:15.141Z,10.17
2022-10-04T20:45:46.304Z,10.19
2022-10-04T20:48:18.364Z,10.21
2022-10-04T20:50:49.270Z,10.30
2022-10-04T20:53:31.803Z,10.30
2022-10-04T20:56:23.996Z,10.34
2022-10-04T20:58:56.103Z,10.47
2022-10-04T21:01:33.780Z,10.55
2022-10-04T21:04:15.472Z,11.02
2022-10-04T21:06:56.078Z,11.04
2022-10-04T21:09:22.644Z,11.16
2022-10-04T21:11:54.313Z,11.26
2022-10-04T21:14:25.535Z,11.33
2022-10-04T21:16:56.515Z,11.42
2022-10-04T21:19:32.632Z,11.32
2022-10-04T21:21:58.992Z,11.39
2022-10-04T21:24:41.786Z,11.50
2022-10-04T21:27:10.833Z,11.55
2022-10-04T21:29:38.240Z,11.23
2022-10-04T21:32:04.941Z,11.33
2022-10-04T21:34:51.816Z,11.26
2022-10-04T21:37:18.889Z,11.06
2022-10-04T21:39:45.385Z,11.19
2022-10-04T21:42:11.813Z,11.15
2022-10-04T21:44:39.858Z,11.02
2022-10-04T21:47:06.186Z,11.01
2022-10-04T21:49:32.553Z,11.04
2022-10-04T21:51:58.896Z,10.98
2022-10-04T21:54:25.219Z,10.99
2022-10-04T21:56:51.692Z,10.82
2022-10-04T21:59:18.059Z,10.85
2022-10-04T22:01:44.388Z,10.92
2022-10-04T22:04:10.804Z,10.85
2022-10-04T22:06:37.305Z,10.91
2022-10-04T22:09:03.914Z,10.89
2022-10-04T22:11:30.273Z,10.88
2022-10-04T22:13:56.597Z,11.06
2022-10-04T22:16:23.004Z,11.04
2022-10-04T22:18:49.391Z,10.98
2022-10-04T22:21:15.718Z,11.01
2022-10-04T22:23:43.391Z,10.87
2022-10-04T22:26:15.759Z,10.95
2022-10-04T22:28:45.396Z,11.02
2022-10-04T22:31:13.317Z,10.90
2022-10-04T22:33:41.593Z,10.96
2022-10-04T22:36:15.327Z,10.94
2022-10-04T22:38:44.395Z,11.04
2022-10-04T22:41:16.047Z,11.02
2022-10-04T22:43:44.262Z,10.97
2022-10-04T22:46:16.818Z,10.96
2022-10-04T22:48:48.090Z,10.88
2022-10-04T22:51:15.323Z,10.95
2022-10-04T22:53:44.151Z,10.82
2022-10-04T22:56:13.121Z,10.94
2022-10-04T22:58:40.086Z,10.96
2022-10-04T23:01:15.647Z,10.98
2022-10-04T23:03:46.159Z,11.10
2022-10-04T23:06:14.213Z,11.11
2022-10-04T23:08:44.564Z,11.19
2022-10-04T23:11:11.516Z,11.28
2022-10-04T23:13:38.484Z,11.33
2022-10-04T23:16:19.293Z,11.39
2022-10-04T23:18:45.695Z,11.39
2022-10-04T23:21:21.171Z,11.47
2022-10-04T23:23:48.067Z,11.43
2022-10-04T23:26:22.233Z,11.43
2022-10-04T23:28:48.768Z,11.43
2022-10-04T23:31:26.817Z,11.40
2022-10-04T23:33:56.648Z,11.33
2022-10-04T23:36:23.312Z,11.36
2022-10-04T23:38:55.194Z,11.36
2022-10-04T23:41:21.508Z,11.34
2022-10-04T23:43:48.997Z,11.34
2022-10-04T23:46:19.106Z,11.30
2022-10-04T23:48:46.777Z,11.21
2022-10-04T23:51:18.281Z,11.10
2022-10-04T23:53:48.398Z,11.09
2022-10-04T23:56:21.434Z,11.06
2022-10-04T23:58:49.709Z,10.99
